createdAt,value
2023-03-22T00:00:07.112Z,100871.28
2023-03-22T00:02:54.686Z,100864.47
2023-03-22T00:05:40.982Z,100869.19
2023-03-22T00:08:26.970Z,100874.34
2023-03-22T00:11:13.021Z,100864.03
2023-03-22T00:13:59.614Z,100871.00
2023-03-22T00:16:46.328Z,100869.31
2023-03-22T00:19:33.837Z,100878.94
2023-03-22T00:22:19.617Z,100873.50
2023-03-22T00:25:06.050Z,100878.66
2023-03-22T00:27:51.834Z,100875.19
2023-03-22T00:30:38.291Z,100876.28
2023-03-22T00:33:24.439Z,100865.81
2023-03-22T00:36:12.483Z,100862.34
2023-03-22T00:38:58.671Z,100859.00
2023-03-22T00:41:44.455Z,100861.03
2023-03-22T00:44:30.975Z,100855.88
2023-03-22T00:47:16.904Z,100848.91
2023-03-22T00:50:03.538Z,100837.63
2023-03-22T00:52:50.692Z,100831.75
2023-03-22T00:55:36.536Z,100834.28
2023-03-22T00:58:23.239Z,100829.25
2023-03-22T01:01:09.265Z,100822.56
2023-03-22T01:03:55.674Z,100829.38
2023-03-22T01:06:41.864Z,100832.16
2023-03-22T01:09:30.981Z,100828.56
2023-03-22T01:12:17.035Z,100824.66
2023-03-22T01:15:03.588Z,100831.63
2023-03-22T01:17:50.189Z,100822.59
2023-03-22T01:20:36.469Z,100825.81
2023-03-22T01:23:22.210Z,100826.50
2023-03-22T01:26:09.632Z,100825.88
2023-03-22T01:28:55.870Z,100819.22
2023-03-22T01:31:41.722Z,100822.31
2023-03-22T01:34:28.156Z,100820.94
2023-03-22T01:37:14.473Z,100817.03
2023-03-22T01:40:04.583Z,100807.03
2023-03-22T01:42:53.931Z,100801.31
2023-03-22T01:45:42.727Z,100797.31
2023-03-22T01:48:31.319Z,100784.78
2023-03-22T01:51:17.924Z,100785.50
2023-03-22T01:54:26.069Z,100773.13
2023-03-22T01:57:12.390Z,100765.03
2023-03-22T02:00:04.253Z,100756.94
2023-03-22T02:03:26.832Z,100746.09
2023-03-22T02:06:13.173Z,100738.59
2023-03-22T02:08:59.242Z,100726.19
2023-03-22T02:11:48.132Z,100718.94
2023-03-22T02:14:46.089Z,100716.00
2023-03-22T02:18:01.651Z,100712.25
2023-03-22T02:20:52.965Z,100712.09
2023-03-22T02:23:54.210Z,100710.97
2023-03-22T02:27:06.576Z,100706.53
2023-03-22T02:29:54.919Z,100702.91
2023-03-22T02:32:49.490Z,100703.63
2023-03-22T02:35:44.355Z,100693.88
2023-03-22T02:38:57.637Z,100686.91
2023-03-22T02:41:46.437Z,100685.63
2023-03-22T02:44:34.549Z,100680.19
2023-03-22T02:47:22.265Z,100673.91
2023-03-22T02:50:09.897Z,100670.97
2023-03-22T02:52:57.280Z,100668.34
2023-03-22T02:55:45.326Z,100669.16
2023-03-22T02:58:31.953Z,100662.19
2023-03-22T03:01:19.870Z,100664.72
2023-03-22T03:04:07.331Z,100653.28
2023-03-22T03:06:54.031Z,100653.00
2023-03-22T03:09:41.723Z,100653.81
2023-03-22T03:12:30.199Z,100647.28
2023-03-22T03:15:16.945Z,100643.78
2023-03-22T03:18:08.833Z,100640.28
2023-03-22T03:21:00.229Z,100634.03
2023-03-22T03:23:49.446Z,100635.72
2023-03-22T03:26:37.645Z,100637.38
2023-03-22T03:29:26.337Z,100628.47
2023-03-22T03:32:14.175Z,100631.25
2023-03-22T03:35:00.420Z,100624.81
2023-03-22T03:37:47.214Z,100626.50
2023-03-22T03:40:33.545Z,100615.75
2023-03-22T03:43:19.863Z,100607.66
2023-03-22T03:46:07.646Z,100608.63
2023-03-22T03:48:53.919Z,100602.78
2023-03-22T03:51:46.649Z,100598.47
2023-03-22T03:54:32.556Z,100596.53
2023-03-22T03:57:18.791Z,100594.84
2023-03-22T04:00:05.806Z,100585.50
2023-03-22T04:03:11.372Z,100585.38
2023-03-22T04:06:17.503Z,100582.28
2023-03-22T04:09:09.071Z,100585.22
2023-03-22T04:12:00.098Z,100585.38
2023-03-22T04:14:46.205Z,100592.63
2023-03-22T04:17:40.799Z,100595.56
2023-03-22T04:20:29.760Z,100599.75
2023-03-22T04:23:16.313Z,100603.09
2023-03-22T04:26:05.865Z,100602.94
2023-03-22T04:29:03.268Z,100602.94
2023-03-22T04:31:50.258Z,100607.94
2023-03-22T04:34:56.535Z,100603.19
2023-03-22T04:37:45.604Z,100596.94
2023-03-22T04:40:38.813Z,100591.38
2023-03-22T04:43:29.862Z,100588.28
2023-03-22T04:46:22.337Z,100583.81
2023-03-22T04:49:14.378Z,100586.22
2023-03-22T04:52:01.805Z,100590.78
2023-03-22T04:54:56.184Z,100585.78
2023-03-22T04:57:41.974Z,100586.31
2023-03-22T05:00:30.006Z,100581.72
2023-03-22T05:03:19.255Z,100580.88
2023-03-22T05:06:07.099Z,100586.84
2023-03-22T05:09:01.829Z,100576.25
2023-03-22T05:11:49.510Z,100582.38
2023-03-22T05:15:08.260Z,100580.44
2023-03-22T05:17:56.787Z,100566.09
2023-03-22T05:20:43.557Z,100561.47
2023-03-22T05:23:39.600Z,100557.84
2023-03-22T05:26:26.287Z,100557.69
2023-03-22T05:29:14.700Z,100553.38
2023-03-22T05:32:44.186Z,100543.47
2023-03-22T05:35:31.514Z,100535.06
2023-03-22T05:38:22.775Z,100537.94
2023-03-22T05:41:11.468Z,100531.56
2023-03-22T05:43:57.312Z,100519.81
2023-03-22T05:46:44.803Z,100527.63
2023-03-22T05:49:43.857Z,100514.38
2023-03-22T05:52:30.245Z,100514.50
2023-03-22T05:55:37.199Z,100501.94
2023-03-22T05:58:25.029Z,100505.28
2023-03-22T06:01:12.659Z,100506.25
2023-03-22T06:04:05.896Z,100499.13
2023-03-22T06:07:07.399Z,100498.16
2023-03-22T06:10:07.409Z,100498.00
2023-03-22T06:12:53.487Z,100487.41
2023-03-22T06:15:45.873Z,100483.63
2023-03-22T06:18:38.834Z,100488.63
2023-03-22T06:21:31.033Z,100490.44
2023-03-22T06:24:17.334Z,100489.19
2023-03-22T06:27:04.551Z,100483.72
2023-03-22T06:29:54.569Z,100482.59
2023-03-22T06:32:43.994Z,100483.41
2023-03-22T06:35:30.201Z,100484.47
2023-03-22T06:38:17.553Z,100480.53
2023-03-22T06:41:03.870Z,100476.31
2023-03-22T06:43:50.308Z,100466.91
2023-03-22T06:46:54.193Z,100475.13
2023-03-22T06:50:02.719Z,100461.91
2023-03-22T06:53:08.769Z,100458.94
2023-03-22T06:55:56.406Z,100451.00
2023-03-22T06:58:43.690Z,100447.88
2023-03-22T07:01:29.920Z,100444.22
2023-03-22T07:04:16.113Z,100440.06
2023-03-22T07:07:04.267Z,100433.63
2023-03-22T07:09:51.111Z,100436.13
2023-03-22T07:12:38.851Z,100422.91
2023-03-22T07:15:30.173Z,100431.25
2023-03-22T07:18:23.506Z,100422.69
2023-03-22T07:21:09.911Z,100419.75
2023-03-22T07:23:59.154Z,100415.53
2023-03-22T07:26:48.080Z,100409.44
2023-03-22T07:29:41.097Z,100392.56
2023-03-22T07:32:27.519Z,100387.13
2023-03-22T07:35:28.980Z,100385.50
2023-03-22T07:38:15.427Z,100371.25
2023-03-22T07:41:01.588Z,100365.97
2023-03-22T07:44:15.218Z,100351.38
2023-03-22T07:47:11.671Z,100348.75
2023-03-22T07:50:30.011Z,100334.31
2023-03-22T07:53:18.778Z,100316.38
2023-03-22T07:56:05.136Z,100305.25
2023-03-22T07:58:51.585Z,100301.91
2023-03-22T08:01:38.549Z,100299.22
2023-03-22T08:04:36.194Z,100294.06
2023-03-22T08:07:45.177Z,100281.75
2023-03-22T08:10:32.863Z,100274.25
2023-03-22T08:13:20.414Z,100272.59
2023-03-22T08:16:07.017Z,100260.78
2023-03-22T08:18:53.346Z,100251.25
2023-03-22T08:21:41.718Z,100242.31
2023-03-22T08:24:37.233Z,100236.28
2023-03-22T08:27:26.252Z,100228.28
2023-03-22T08:30:13.232Z,100226.31
2023-03-22T08:32:59.206Z,100220.66
2023-03-22T08:35:46.419Z,100233.25
2023-03-22T08:38:34.108Z,100227.47
2023-03-22T08:41:19.913Z,100231.91
2023-03-22T08:44:06.889Z,100227.22
2023-03-22T08:46:54.302Z,100234.72
2023-03-22T08:49:40.889Z,100231.22
2023-03-22T08:52:34.935Z,100234.03
2023-03-22T08:55:29.688Z,100230.47
2023-03-22T08:58:30.776Z,100233.81
2023-03-22T09:01:38.811Z,100228.72
2023-03-22T09:04:27.575Z,100230.66
2023-03-22T09:07:14.162Z,100232.09
2023-03-22T09:10:04.230Z,100217.63
2023-03-22T09:12:52.688Z,100215.34
2023-03-22T09:15:39.126Z,100211.28
2023-03-22T09:18:35.027Z,100208.84
2023-03-22T09:21:24.649Z,100198.06
2023-03-22T09:24:33.458Z,100204.69
2023-03-22T09:27:22.614Z,100197.25
2023-03-22T09:30:12.159Z,100190.16
2023-03-22T09:32:57.992Z,100198.38
2023-03-22T09:35:44.278Z,100207.13
2023-03-22T09:38:35.294Z,100196.81
2023-03-22T09:41:22.170Z,100192.84
2023-03-22T09:44:09.141Z,100183.56
2023-03-22T09:46:59.912Z,100185.28
2023-03-22T09:49:53.426Z,100189.16
2023-03-22T09:52:40.311Z,100180.81
2023-03-22T09:55:28.874Z,100169.47
2023-03-22T09:58:18.136Z,100174.56
2023-03-22T10:01:04.521Z,100174.81
2023-03-22T10:04:05.950Z,100164.53
2023-03-22T10:06:59.809Z,100165.94
2023-03-22T10:09:47.325Z,100160.88
2023-03-22T10:12:34.564Z,100165.38
2023-03-22T10:15:21.181Z,100162.22
2023-03-22T10:18:07.821Z,100166.00
2023-03-22T10:20:55.454Z,100159.16
2023-03-22T10:23:44.160Z,100155.63
2023-03-22T10:26:30.653Z,100158.03
2023-03-22T10:29:18.554Z,100155.34
2023-03-22T10:32:10.694Z,100148.63
2023-03-22T10:34:56.636Z,100152.81
2023-03-22T10:37:42.901Z,100145.41
2023-03-22T10:40:30.747Z,100135.97
2023-03-22T10:43:18.288Z,100154.53
2023-03-22T10:46:06.959Z,100145.47
2023-03-22T10:48:54.410Z,100150.81
2023-03-22T10:51:41.406Z,100159.63
2023-03-22T10:54:27.316Z,100137.81
2023-03-22T10:57:15.017Z,100151.00
2023-03-22T11:00:01.025Z,100141.75
2023-03-22T11:02:48.180Z,100139.25
2023-03-22T11:05:34.626Z,100141.09
2023-03-22T11:08:20.756Z,100145.41
2023-03-22T11:11:07.678Z,100146.69
2023-03-22T11:14:00.293Z,100151.56
2023-03-22T11:16:48.664Z,100155.63
2023-03-22T11:19:35.151Z,100153.34
2023-03-22T11:22:23.911Z,100156.84
2023-03-22T11:25:11.530Z,100159.66
2023-03-22T11:27:58.331Z,100165.06
2023-03-22T11:30:58.344Z,100162.63
2023-03-22T11:33:46.533Z,100169.59
2023-03-22T11:36:32.582Z,100173.22
2023-03-22T11:39:18.558Z,100180.41
2023-03-22T11:42:06.274Z,100178.94
2023-03-22T11:44:52.610Z,100174.09
2023-03-22T11:47:40.246Z,100181.31
2023-03-22T11:50:27.950Z,100165.44
2023-03-22T11:53:14.686Z,100166.28
2023-03-22T11:56:00.617Z,100163.75
2023-03-22T11:58:54.926Z,100169.53
2023-03-22T12:01:41.457Z,100150.19
2023-03-22T12:04:29.824Z,100165.03
2023-03-22T12:07:16.497Z,100158.84
2023-03-22T12:10:04.839Z,100152.66
2023-03-22T12:12:51.973Z,100160.91
2023-03-22T12:15:39.641Z,100163.78
2023-03-22T12:18:27.564Z,100166.88
2023-03-22T12:21:15.662Z,100162.72
2023-03-22T12:24:02.511Z,100164.97
2023-03-22T12:26:48.595Z,100162.66
2023-03-22T12:29:34.569Z,100155.22
2023-03-22T12:32:22.505Z,100165.44
2023-03-22T12:35:17.166Z,100155.97
2023-03-22T12:38:08.023Z,100149.00
2023-03-22T12:40:54.772Z,100150.44
2023-03-22T12:43:43.341Z,100149.00
2023-03-22T12:46:30.130Z,100136.25
2023-03-22T12:49:17.527Z,100136.66
2023-03-22T12:52:04.762Z,100132.13
2023-03-22T12:54:52.329Z,100135.06
2023-03-22T12:57:39.071Z,100126.22
2023-03-22T13:00:28.555Z,100121.00
2023-03-22T13:03:20.169Z,100119.19
2023-03-22T13:06:07.598Z,100118.75
2023-03-22T13:09:15.691Z,100119.59
2023-03-22T13:12:16.891Z,100114.00
2023-03-22T13:15:31.548Z,100114.00
2023-03-22T13:18:30.578Z,100118.69
2023-03-22T13:21:20.022Z,100113.06
2023-03-22T13:24:21.233Z,100121.28
2023-03-22T13:27:08.312Z,100118.56
2023-03-22T13:29:57.850Z,100115.50
2023-03-22T13:32:51.633Z,100113.22
2023-03-22T13:35:42.183Z,100116.09
2023-03-22T13:38:29.413Z,100117.91
2023-03-22T13:41:18.320Z,100112.94
2023-03-22T13:44:19.682Z,100112.28
2023-03-22T13:47:05.849Z,100126.19
2023-03-22T13:49:54.230Z,100132.56
2023-03-22T13:52:41.405Z,100132.56
2023-03-22T13:55:41.183Z,100140.69
2023-03-22T13:58:37.822Z,100136.84
2023-03-22T14:01:26.647Z,100142.34
2023-03-22T14:04:13.223Z,100143.22
2023-03-22T14:07:01.366Z,100139.41
2023-03-22T14:09:49.772Z,100143.38
2023-03-22T14:12:37.876Z,100142.59
2023-03-22T14:15:24.478Z,100138.78
2023-03-22T14:18:13.602Z,100138.28
2023-03-22T14:21:00.699Z,100149.09
